sensor_id;sensor_type;location;lat;lon;timestamp;P1;durP1;ratioP1;P2;durP2;ratioP2
31347;SDS011;21711;49.708;18.568;2023-07-24T00:01:55;4.53;;;3.15;;
31347;SDS011;21711;49.708;18.568;2023-07-24T00:04:23;6.78;;;2.90;;
31347;SDS011;21711;49.708;18.568;2023-07-24T00:06:50;6.07;;;3.10;;
31347;SDS011;21711;49.708;18.568;2023-07-24T00:09:17;7.50;;;3.53;;
31347;SDS011;21711;49.708;18.568;2023-07-24T00:11:44;5.40;;;3.17;;
31347;SDS011;21711;49.708;18.568;2023-07-24T00:14:12;8.65;;;3.63;;
31347;SDS011;21711;49.708;18.568;2023-07-24T00:16:39;5.75;;;3.85;;
31347;SDS011;21711;49.708;18.568;2023-07-24T00:19:07;6.93;;;4.07;;
31347;SDS011;21711;49.708;18.568;2023-07-24T00:21:34;6.55;;;3.60;;
31347;SDS011;21711;49.708;18.568;2023-07-24T00:24:01;5.40;;;3.33;;
31347;SDS011;21711;49.708;18.568;2023-07-24T00:26:29;5.43;;;3.47;;
31347;SDS011;21711;49.708;18.568;2023-07-24T00:28:57;7.00;;;3.08;;
31347;SDS011;21711;49.708;18.568;2023-07-24T00:31:26;6.10;;;3.73;;
31347;SDS011;21711;49.708;18.568;2023-07-24T00:33:53;5.60;;;3.30;;
31347;SDS011;21711;49.708;18.568;2023-07-24T00:36:20;5.35;;;3.42;;
31347;SDS011;21711;49.708;18.568;2023-07-24T00:38:48;6.85;;;3.38;;
31347;SDS011;21711;49.708;18.568;2023-07-24T00:41:15;6.07;;;3.88;;
31347;SDS011;21711;49.708;18.568;2023-07-24T00:43:42;4.97;;;3.28;;
31347;SDS011;21711;49.708;18.568;2023-07-24T00:46:10;5.22;;;3.45;;
31347;SDS011;21711;49.708;18.568;2023-07-24T00:48:38;7.45;;;3.05;;
31347;SDS011;21711;49.708;18.568;2023-07-24T00:51:06;7.97;;;3.72;;
31347;SDS011;21711;49.708;18.568;2023-07-24T00:53:34;7.22;;;3.90;;
31347;SDS011;21711;49.708;18.568;2023-07-24T00:56:01;7.97;;;3.83;;
31347;SDS011;21711;49.708;18.568;2023-07-24T00:58:29;5.20;;;3.17;;
31347;SDS011;21711;49.708;18.568;2023-07-24T01:00:57;6.20;;;3.35;;
31347;SDS011;21711;49.708;18.568;2023-07-24T01:03:26;6.85;;;3.38;;
31347;SDS011;21711;49.708;18.568;2023-07-24T01:06:02;4.68;;;3.08;;
31347;SDS011;21711;49.708;18.568;2023-07-24T01:08:30;5.68;;;3.45;;
31347;SDS011;21711;49.708;18.568;2023-07-24T01:10:58;7.07;;;3.85;;
31347;SDS011;21711;49.708;18.568;2023-07-24T01:14:33;5.47;;;3.55;;
31347;SDS011;21711;49.708;18.568;2023-07-24T01:16:53;10.52;;;3.70;;
31347;SDS011;21711;49.708;18.568;2023-07-24T01:19:42;5.75;;;3.35;;
31347;SDS011;21711;49.708;18.568;2023-07-24T01:22:20;7.30;;;3.65;;
31347;SDS011;21711;49.708;18.568;2023-07-24T01:28:24;5.65;;;3.50;;
31347;SDS011;21711;49.708;18.568;2023-07-24T01:30:53;7.22;;;3.38;;
31347;SDS011;21711;49.708;18.568;2023-07-24T01:33:21;5.97;;;3.75;;
31347;SDS011;21711;49.708;18.568;2023-07-24T01:35:50;7.03;;;3.70;;
31347;SDS011;21711;49.708;18.568;2023-07-24T01:38:25;6.85;;;3.90;;
31347;SDS011;21711;49.708;18.568;2023-07-24T01:40:53;7.70;;;3.83;;
31347;SDS011;21711;49.708;18.568;2023-07-24T01:43:24;7.80;;;4.57;;
31347;SDS011;21711;49.708;18.568;2023-07-24T01:45:53;4.95;;;3.58;;
31347;SDS011;21711;49.708;18.568;2023-07-24T01:48:21;5.45;;;3.70;;
31347;SDS011;21711;49.708;18.568;2023-07-24T01:50:49;5.47;;;3.63;;
31347;SDS011;21711;49.708;18.568;2023-07-24T01:53:17;5.13;;;3.55;;
31347;SDS011;21711;49.708;18.568;2023-07-24T01:55:44;5.97;;;3.70;;
31347;SDS011;21711;49.708;18.568;2023-07-24T01:58:11;6.65;;;4.25;;
31347;SDS011;21711;49.708;18.568;2023-07-24T02:00:39;7.40;;;4.18;;
31347;SDS011;21711;49.708;18.568;2023-07-24T02:03:06;6.03;;;3.95;;
31347;SDS011;21711;49.708;18.568;2023-07-24T02:05:33;6.05;;;3.30;;
31347;SDS011;21711;49.708;18.568;2023-07-24T02:08:02;6.28;;;3.78;;
31347;SDS011;21711;49.708;18.568;2023-07-24T02:10:29;6.50;;;4.25;;
31347;SDS011;21711;49.708;18.568;2023-07-24T02:12:57;6.25;;;4.00;;
31347;SDS011;21711;49.708;18.568;2023-07-24T02:15:24;7.15;;;4.05;;
31347;SDS011;21711;49.708;18.568;2023-07-24T02:17:52;9.05;;;4.53;;
31347;SDS011;21711;49.708;18.568;2023-07-24T02:20:19;6.95;;;4.03;;
31347;SDS011;21711;49.708;18.568;2023-07-24T02:22:46;5.40;;;3.72;;
31347;SDS011;21711;49.708;18.568;2023-07-24T02:25:14;5.80;;;3.60;;
31347;SDS011;21711;49.708;18.568;2023-07-24T02:27:41;7.97;;;4.25;;
31347;SDS011;21711;49.708;18.568;2023-07-24T02:30:08;5.45;;;3.92;;
31347;SDS011;21711;49.708;18.568;2023-07-24T02:32:36;8.02;;;4.03;;
31347;SDS011;21711;49.708;18.568;2023-07-24T02:35:04;9.23;;;4.28;;
31347;SDS011;21711;49.708;18.568;2023-07-24T02:37:32;7.15;;;4.45;;
31347;SDS011;21711;49.708;18.568;2023-07-24T02:39:59;6.80;;;3.90;;
31347;SDS011;21711;49.708;18.568;2023-07-24T02:42:27;7.57;;;3.70;;
31347;SDS011;21711;49.708;18.568;2023-07-24T02:44:54;9.63;;;4.80;;
31347;SDS011;21711;49.708;18.568;2023-07-24T02:47:22;7.97;;;3.97;;
31347;SDS011;21711;49.708;18.568;2023-07-24T02:49:49;12.20;;;5.10;;
31347;SDS011;21711;49.708;18.568;2023-07-24T02:52:16;7.15;;;4.18;;
31347;SDS011;21711;49.708;18.568;2023-07-24T02:54:44;7.22;;;3.92;;
31347;SDS011;21711;49.708;18.568;2023-07-24T02:57:11;7.97;;;4.22;;
31347;SDS011;21711;49.708;18.568;2023-07-24T02:59:38;7.60;;;4.07;;
31347;SDS011;21711;49.708;18.568;2023-07-24T03:02:05;5.97;;;4.00;;
31347;SDS011;21711;49.708;18.568;2023-07-24T03:04:33;7.03;;;4.18;;
31347;SDS011;21711;49.708;18.568;2023-07-24T03:07:00;9.52;;;4.65;;
31347;SDS011;21711;49.708;18.568;2023-07-24T03:09:27;8.60;;;4.22;;
31347;SDS011;21711;49.708;18.568;2023-07-24T03:11:55;7.10;;;4.15;;
31347;SDS011;21711;49.708;18.568;2023-07-24T03:14:23;7.53;;;4.43;;
31347;SDS011;21711;49.708;18.568;2023-07-24T03:16:50;7.85;;;4.15;;
31347;SDS011;21711;49.708;18.568;2023-07-24T03:19:18;7.47;;;4.10;;
31347;SDS011;21711;49.708;18.568;2023-07-24T03:21:46;6.38;;;4.82;;
31347;SDS011;21711;49.708;18.568;2023-07-24T03:24:14;7.90;;;4.40;;
31347;SDS011;21711;49.708;18.568;2023-07-24T03:26:41;7.57;;;4.32;;
31347;SDS011;21711;49.708;18.568;2023-07-24T03:29:08;8.88;;;4.72;;
31347;SDS011;21711;49.708;18.568;2023-07-24T03:31:35;9.02;;;5.78;;
31347;SDS011;21711;49.708;18.568;2023-07-24T03:34:03;6.60;;;4.22;;
31347;SDS011;21711;49.708;18.568;2023-07-24T03:36:30;7.55;;;4.55;;
31347;SDS011;21711;49.708;18.568;2023-07-24T03:38:58;9.60;;;4.90;;
31347;SDS011;21711;49.708;18.568;2023-07-24T03:41:25;6.70;;;4.65;;
31347;SDS011;21711;49.708;18.568;2023-07-24T03:43:53;6.45;;;4.43;;
31347;SDS011;21711;49.708;18.568;2023-07-24T03:46:21;8.02;;;4.55;;
31347;SDS011;21711;49.708;18.568;2023-07-24T03:48:48;6.93;;;3.92;;
31347;SDS011;21711;49.708;18.568;2023-07-24T03:51:17;9.75;;;5.47;;
31347;SDS011;21711;49.708;18.568;2023-07-24T03:53:44;8.82;;;4.85;;
31347;SDS011;21711;49.708;18.568;2023-07-24T03:56:12;6.47;;;4.50;;
31347;SDS011;21711;49.708;18.568;2023-07-24T03:58:39;10.98;;;7.25;;
31347;SDS011;21711;49.708;18.568;2023-07-24T04:01:07;12.00;;;7.90;;
31347;SDS011;21711;49.708;18.568;2023-07-24T04:03:35;14.43;;;12.32;;
31347;SDS011;21711;49.708;18.568;2023-07-24T04:06:03;11.43;;;8.25;;
31347;SDS011;21711;49.708;18.568;2023-07-24T04:08:30;11.75;;;9.13;;
31347;SDS011;21711;49.708;18.568;2023-07-24T04:10:57;9.23;;;6.88;;
31347;SDS011;21711;49.708;18.568;2023-07-24T04:13:25;11.10;;;7.28;;
31347;SDS011;21711;49.708;18.568;2023-07-24T04:15:52;9.10;;;6.80;;
31347;SDS011;21711;49.708;18.568;2023-07-24T04:18:19;9.60;;;7.05;;
31347;SDS011;21711;49.708;18.568;2023-07-24T04:20:47;13.55;;;7.63;;
31347;SDS011;21711;49.708;18.568;2023-07-24T04:23:14;11.15;;;7.97;;
31347;SDS011;21711;49.708;18.568;2023-07-24T04:25:41;11.27;;;6.93;;
31347;SDS011;21711;49.708;18.568;2023-07-24T04:28:09;6.50;;;5.22;;
31347;SDS011;21711;49.708;18.568;2023-07-24T04:30:36;8.18;;;5.70;;
31347;SDS011;21711;49.708;18.568;2023-07-24T04:33:03;10.88;;;6.15;;
31347;SDS011;21711;49.708;18.568;2023-07-24T04:35:31;7.90;;;5.68;;
31347;SDS011;21711;49.708;18.568;2023-07-24T04:37:58;6.90;;;5.35;;
31347;SDS011;21711;49.708;18.568;2023-07-24T04:40:25;8.95;;;5.55;;
31347;SDS011;21711;49.708;18.568;2023-07-24T04:42:53;7.05;;;4.80;;
31347;SDS011;21711;49.708;18.568;2023-07-24T04:45:20;7.47;;;5.10;;
31347;SDS011;21711;49.708;18.568;2023-07-24T04:47:49;11.20;;;4.97;;
31347;SDS011;21711;49.708;18.568;2023-07-24T04:50:17;9.40;;;5.05;;
31347;SDS011;21711;49.708;18.568;2023-07-24T04:52:44;8.43;;;4.72;;
31347;SDS011;21711;49.708;18.568;2023-07-24T04:55:11;6.95;;;4.30;;
31347;SDS011;21711;49.708;18.568;2023-07-24T04:57:39;7.53;;;4.20;;
31347;SDS011;21711;49.708;18.568;2023-07-24T05:00:06;7.60;;;4.65;;
31347;SDS011;21711;49.708;18.568;2023-07-24T05:02:35;5.15;;;3.63;;
31347;SDS011;21711;49.708;18.568;2023-07-24T05:05:02;10.95;;;4.20;;
31347;SDS011;21711;49.708;18.568;2023-07-24T05:07:30;18.02;;;3.83;;
31347;SDS011;21711;49.708;18.568;2023-07-24T05:09:57;5.80;;;3.92;;
31347;SDS011;21711;49.708;18.568;2023-07-24T05:12:25;6.35;;;4.45;;
31347;SDS011;21711;49.708;18.568;2023-07-24T05:14:53;6.45;;;4.13;;
31347;SDS011;21711;49.708;18.568;2023-07-24T05:17:20;7.07;;;4.07;;
31347;SDS011;21711;49.708;18.568;2023-07-24T05:19:47;8.55;;;4.18;;
31347;SDS011;21711;49.708;18.568;2023-07-24T05:22:15;5.18;;;3.80;;
31347;SDS011;21711;49.708;18.568;2023-07-24T05:24:42;6.60;;;4.43;;
31347;SDS011;21711;49.708;18.568;2023-07-24T05:27:09;5.43;;;3.90;;
31347;SDS011;21711;49.708;18.568;2023-07-24T05:29:39;6.13;;;4.45;;
31347;SDS011;21711;49.708;18.568;2023-07-24T05:32:06;9.35;;;4.38;;
31347;SDS011;21711;49.708;18.568;2023-07-24T05:34:34;7.13;;;4.60;;
31347;SDS011;21711;49.708;18.568;2023-07-24T05:37:01;10.27;;;4.70;;
31347;SDS011;21711;49.708;18.568;2023-07-24T05:39:29;7.18;;;4.63;;
31347;SDS011;21711;49.708;18.568;2023-07-24T05:41:57;6.65;;;4.88;;
31347;SDS011;21711;49.708;18.568;2023-07-24T05:44:24;8.60;;;4.32;;
31347;SDS011;21711;49.708;18.568;2023-07-24T05:46:51;7.13;;;4.63;;
31347;SDS011;21711;49.708;18.568;2023-07-24T05:49:19;6.60;;;4.70;;
31347;SDS011;21711;49.708;18.568;2023-07-24T05:51:46;7.72;;;5.10;;
31347;SDS011;21711;49.708;18.568;2023-07-24T05:54:13;8.65;;;5.03;;
31347;SDS011;21711;49.708;18.568;2023-07-24T05:56:41;8.07;;;4.55;;
31347;SDS011;21711;49.708;18.568;2023-07-24T05:59:08;6.82;;;4.53;;
31347;SDS011;21711;49.708;18.568;2023-07-24T06:01:35;6.03;;;4.18;;
31347;SDS011;21711;49.708;18.568;2023-07-24T06:04:02;8.85;;;5.05;;
31347;SDS011;21711;49.708;18.568;2023-07-24T06:06:31;7.67;;;4.80;;
31347;SDS011;21711;49.708;18.568;2023-07-24T06:08:59;7.97;;;4.70;;
31347;SDS011;21711;49.708;18.568;2023-07-24T06:11:26;6.30;;;4.60;;
31347;SDS011;21711;49.708;18.568;2023-07-24T06:13:54;9.35;;;5.05;;
31347;SDS011;21711;49.708;18.568;2023-07-24T06:16:21;17.83;;;5.95;;
31347;SDS011;21711;49.708;18.568;2023-07-24T06:18:49;8.27;;;5.00;;
31347;SDS011;21711;49.708;18.568;2023-07-24T06:21:16;6.70;;;4.78;;
31347;SDS011;21711;49.708;18.568;2023-07-24T06:23:43;8.25;;;5.10;;
31347;SDS011;21711;49.708;18.568;2023-07-24T06:26:10;10.77;;;5.80;;
31347;SDS011;21711;49.708;18.568;2023-07-24T06:28:38;7.95;;;5.10;;
31347;SDS011;21711;49.708;18.568;2023-07-24T06:31:05;8.43;;;5.47;;
31347;SDS011;21711;49.708;18.568;2023-07-24T06:33:32;8.82;;;5.68;;
31347;SDS011;21711;49.708;18.568;2023-07-24T06:36:00;10.18;;;5.32;;
31347;SDS011;21711;49.708;18.568;2023-07-24T06:38:27;8.18;;;5.45;;
31347;SDS011;21711;49.708;18.568;2023-07-24T06:40:54;8.32;;;5.70;;
31347;SDS011;21711;49.708;18.568;2023-07-24T06:43:21;9.40;;;4.78;;
31347;SDS011;21711;49.708;18.568;2023-07-24T06:45:49;10.75;;;5.65;;
31347;SDS011;21711;49.708;18.568;2023-07-24T06:48:17;6.57;;;5.45;;
31347;SDS011;21711;49.708;18.568;2023-07-24T06:50:44;7.32;;;5.43;;
31347;SDS011;21711;49.708;18.568;2023-07-24T06:53:11;10.63;;;5.68;;
31347;SDS011;21711;49.708;18.568;2023-07-24T06:55:38;8.85;;;5.65;;
31347;SDS011;21711;49.708;18.568;2023-07-24T06:58:07;10.07;;;5.17;;
31347;SDS011;21711;49.708;18.568;2023-07-24T07:00:34;8.10;;;5.00;;
31347;SDS011;21711;49.708;18.568;2023-07-24T07:03:02;12.98;;;6.13;;
31347;SDS011;21711;49.708;18.568;2023-07-24T07:05:31;7.25;;;4.85;;
31347;SDS011;21711;49.708;18.568;2023-07-24T07:07:58;7.30;;;4.85;;
31347;SDS011;21711;49.708;18.568;2023-07-24T07:10:26;7.00;;;4.88;;
31347;SDS011;21711;49.708;18.568;2023-07-24T07:12:53;8.05;;;5.15;;
31347;SDS011;21711;49.708;18.568;2023-07-24T07:15:21;7.53;;;4.78;;
31347;SDS011;21711;49.708;18.568;2023-07-24T07:17:49;7.80;;;4.80;;
31347;SDS011;21711;49.708;18.568;2023-07-24T07:20:16;7.65;;;4.85;;
31347;SDS011;21711;49.708;18.568;2023-07-24T07:22:43;7.68;;;4.45;;
31347;SDS011;21711;49.708;18.568;2023-07-24T07:25:11;6.43;;;4.47;;
31347;SDS011;21711;49.708;18.568;2023-07-24T07:27:38;8.18;;;4.95;;
31347;SDS011;21711;49.708;18.568;2023-07-24T07:30:06;10.00;;;4.80;;
31347;SDS011;21711;49.708;18.568;2023-07-24T07:32:34;10.57;;;4.45;;
31347;SDS011;21711;49.708;18.568;2023-07-24T07:35:01;8.20;;;5.10;;
31347;SDS011;21711;49.708;18.568;2023-07-24T07:37:29;10.65;;;5.22;;
31347;SDS011;21711;49.708;18.568;2023-07-24T07:39:57;11.85;;;4.65;;
31347;SDS011;21711;49.708;18.568;2023-07-24T07:42:24;10.93;;;4.70;;
31347;SDS011;21711;49.708;18.568;2023-07-24T07:44:51;7.30;;;4.90;;
31347;SDS011;21711;49.708;18.568;2023-07-24T07:47:18;6.13;;;4.30;;
31347;SDS011;21711;49.708;18.568;2023-07-24T07:49:46;7.18;;;4.97;;
31347;SDS011;21711;49.708;18.568;2023-07-24T07:52:13;6.97;;;4.38;;
31347;SDS011;21711;49.708;18.568;2023-07-24T07:54:47;11.55;;;5.07;;
31347;SDS011;21711;49.708;18.568;2023-07-24T07:57:15;10.77;;;5.57;;
31347;SDS011;21711;49.708;18.568;2023-07-24T07:59:43;7.55;;;4.28;;
31347;SDS011;21711;49.708;18.568;2023-07-24T08:02:10;7.53;;;5.00;;
31347;SDS011;21711;49.708;18.568;2023-07-24T08:04:37;6.40;;;4.95;;
31347;SDS011;21711;49.708;18.568;2023-07-24T08:07:05;9.45;;;5.47;;
31347;SDS011;21711;49.708;18.568;2023-07-24T08:09:32;7.32;;;5.53;;
31347;SDS011;21711;49.708;18.568;2023-07-24T08:12:00;9.68;;;5.90;;
31347;SDS011;21711;49.708;18.568;2023-07-24T08:14:27;6.47;;;5.07;;
31347;SDS011;21711;49.708;18.568;2023-07-24T08:16:54;7.43;;;5.20;;
31347;SDS011;21711;49.708;18.568;2023-07-24T08:19:22;9.13;;;5.28;;
31347;SDS011;21711;49.708;18.568;2023-07-24T08:21:49;8.55;;;6.28;;
31347;SDS011;21711;49.708;18.568;2023-07-24T08:24:16;8.48;;;5.28;;
31347;SDS011;21711;49.708;18.568;2023-07-24T08:26:44;11.38;;;5.57;;
31347;SDS011;21711;49.708;18.568;2023-07-24T08:29:12;7.85;;;5.72;;
31347;SDS011;21711;49.708;18.568;2023-07-24T08:31:39;8.48;;;5.47;;
31347;SDS011;21711;49.708;18.568;2023-07-24T08:34:06;8.63;;;5.63;;
31347;SDS011;21711;49.708;18.568;2023-07-24T08:36:34;8.25;;;5.85;;
31347;SDS011;21711;49.708;18.568;2023-07-24T08:39:01;6.43;;;5.32;;
31347;SDS011;21711;49.708;18.568;2023-07-24T08:41:29;8.10;;;5.85;;
31347;SDS011;21711;49.708;18.568;2023-07-24T08:43:59;12.50;;;6.20;;
31347;SDS011;21711;49.708;18.568;2023-07-24T08:46:27;7.43;;;6.10;;
31347;SDS011;21711;49.708;18.568;2023-07-24T08:48:55;7.47;;;6.05;;
31347;SDS011;21711;49.708;18.568;2023-07-24T08:51:23;13.95;;;7.07;;
31347;SDS011;21711;49.708;18.568;2023-07-24T08:53:51;7.85;;;6.00;;
31347;SDS011;21711;49.708;18.568;2023-07-24T08:56:19;7.47;;;6.18;;
31347;SDS011;21711;49.708;18.568;2023-07-24T08:58:46;8.82;;;6.47;;
31347;SDS011;21711;49.708;18.568;2023-07-24T09:01:14;8.85;;;6.65;;
31347;SDS011;21711;49.708;18.568;2023-07-24T09:03:42;8.20;;;6.72;;
31347;SDS011;21711;49.708;18.568;2023-07-24T09:06:09;9.77;;;5.90;;
31347;SDS011;21711;49.708;18.568;2023-07-24T09:08:37;8.90;;;6.13;;
31347;SDS011;21711;49.708;18.568;2023-07-24T09:11:08;8.35;;;6.90;;
31347;SDS011;21711;49.708;18.568;2023-07-24T09:13:43;7.22;;;6.15;;
31347;SDS011;21711;49.708;18.568;2023-07-24T09:16:23;7.18;;;6.18;;
31347;SDS011;21711;49.708;18.568;2023-07-24T09:18:53;9.07;;;5.85;;
31347;SDS011;21711;49.708;18.568;2023-07-24T09:21:31;10.30;;;6.20;;
31347;SDS011;21711;49.708;18.568;2023-07-24T09:26:55;8.75;;;6.15;;
31347;SDS011;21711;49.708;18.568;2023-07-24T09:29:30;16.90;;;6.13;;
31347;SDS011;21711;49.708;18.568;2023-07-24T09:31:59;9.18;;;5.43;;
31347;SDS011;21711;49.708;18.568;2023-07-24T09:34:27;8.48;;;6.03;;
31347;SDS011;21711;49.708;18.568;2023-07-24T09:36:55;7.78;;;5.95;;
31347;SDS011;21711;49.708;18.568;2023-07-24T09:39:23;10.18;;;6.75;;
31347;SDS011;21711;49.708;18.568;2023-07-24T09:42:02;12.77;;;6.35;;
31347;SDS011;21711;49.708;18.568;2023-07-24T09:44:32;8.60;;;5.95;;
31347;SDS011;21711;49.708;18.568;2023-07-24T09:46:59;9.25;;;6.82;;
31347;SDS011;21711;49.708;18.568;2023-07-24T09:49:47;9.60;;;6.65;;
31347;SDS011;21711;49.708;18.568;2023-07-24T09:52:15;10.30;;;5.97;;
31347;SDS011;21711;49.708;18.568;2023-07-24T09:55:09;10.23;;;6.50;;
31347;SDS011;21711;49.708;18.568;2023-07-24T09:57:51;12.18;;;7.07;;
31347;SDS011;21711;49.708;18.568;2023-07-24T10:00:21;16.30;;;7.72;;
31347;SDS011;21711;49.708;18.568;2023-07-24T10:02:49;11.60;;;6.90;;
31347;SDS011;21711;49.708;18.568;2023-07-24T10:05:17;11.43;;;6.90;;
31347;SDS011;21711;49.708;18.568;2023-07-24T10:07:44;8.73;;;5.95;;
31347;SDS011;21711;49.708;18.568;2023-07-24T10:10:13;26.52;;;8.00;;
31347;SDS011;21711;49.708;18.568;2023-07-24T10:12:41;9.32;;;6.35;;
31347;SDS011;21711;49.708;18.568;2023-07-24T10:15:09;9.75;;;6.43;;
31347;SDS011;21711;49.708;18.568;2023-07-24T10:17:37;10.57;;;6.63;;
31347;SDS011;21711;49.708;18.568;2023-07-24T10:20:08;10.65;;;6.53;;
31347;SDS011;21711;49.708;18.568;2023-07-24T10:22:40;10.43;;;6.72;;
31347;SDS011;21711;49.708;18.568;2023-07-24T10:25:09;8.60;;;6.47;;
31347;SDS011;21711;49.708;18.568;2023-07-24T10:27:44;9.33;;;6.90;;
31347;SDS011;21711;49.708;18.568;2023-07-24T10:30:14;9.10;;;7.03;;
31347;SDS011;21711;49.708;18.568;2023-07-24T10:33:07;12.80;;;7.32;;
31347;SDS011;21711;49.708;18.568;2023-07-24T10:35:47;9.55;;;7.30;;
31347;SDS011;21711;49.708;18.568;2023-07-24T10:38:31;8.80;;;7.20;;
31347;SDS011;21711;49.708;18.568;2023-07-24T10:41:06;11.45;;;7.20;;
31347;SDS011;21711;49.708;18.568;2023-07-24T10:43:42;10.25;;;7.82;;
31347;SDS011;21711;49.708;18.568;2023-07-24T10:46:18;10.68;;;6.45;;
31347;SDS011;21711;49.708;18.568;2023-07-24T10:48:48;9.63;;;6.68;;
31347;SDS011;21711;49.708;18.568;2023-07-24T10:51:17;14.20;;;7.50;;
31347;SDS011;21711;49.708;18.568;2023-07-24T10:53:46;10.75;;;7.47;;
31347;SDS011;21711;49.708;18.568;2023-07-24T10:56:16;11.43;;;6.97;;
31347;SDS011;21711;49.708;18.568;2023-07-24T10:58:43;11.63;;;7.83;;
31347;SDS011;21711;49.708;18.568;2023-07-24T11:01:11;10.50;;;7.30;;
31347;SDS011;21711;49.708;18.568;2023-07-24T11:03:40;11.75;;;7.28;;
31347;SDS011;21711;49.708;18.568;2023-07-24T11:06:16;13.48;;;7.85;;
31347;SDS011;21711;49.708;18.568;2023-07-24T11:08:52;9.13;;;6.70;;
31347;SDS011;21711;49.708;18.568;2023-07-24T11:11:32;9.60;;;7.22;;
31347;SDS011;21711;49.708;18.568;2023-07-24T11:16:30;19.05;;;7.35;;
31347;SDS011;21711;49.708;18.568;2023-07-24T11:19:00;12.18;;;7.05;;
31347;SDS011;21711;49.708;18.568;2023-07-24T11:21:27;8.82;;;6.68;;
31347;SDS011;21711;49.708;18.568;2023-07-24T11:23:56;13.32;;;7.30;;
31347;SDS011;21711;49.708;18.568;2023-07-24T11:26:24;10.00;;;5.97;;
31347;SDS011;21711;49.708;18.568;2023-07-24T11:28:53;13.88;;;6.85;;
31347;SDS011;21711;49.708;18.568;2023-07-24T11:31:21;9.73;;;7.07;;
31347;SDS011;21711;49.708;18.568;2023-07-24T11:33:49;8.82;;;6.90;;
31347;SDS011;21711;49.708;18.568;2023-07-24T11:36:18;15.25;;;7.40;;
31347;SDS011;21711;49.708;18.568;2023-07-24T11:38:46;10.00;;;7.00;;
31347;SDS011;21711;49.708;18.568;2023-07-24T11:41:15;12.65;;;7.15;;
31347;SDS011;21711;49.708;18.568;2023-07-24T11:46:22;10.15;;;6.60;;
31347;SDS011;21711;49.708;18.568;2023-07-24T11:48:55;14.35;;;6.90;;
31347;SDS011;21711;49.708;18.568;2023-07-24T11:51:27;12.43;;;6.85;;
31347;SDS011;21711;49.708;18.568;2023-07-24T11:54:08;13.70;;;7.88;;
31347;SDS011;21711;49.708;18.568;2023-07-24T11:56:38;8.43;;;6.38;;
31347;SDS011;21711;49.708;18.568;2023-07-24T11:59:12;11.32;;;6.28;;
31347;SDS011;21711;49.708;18.568;2023-07-24T12:01:41;9.88;;;6.60;;
31347;SDS011;21711;49.708;18.568;2023-07-24T12:04:18;10.50;;;6.45;;
31347;SDS011;21711;49.708;18.568;2023-07-24T12:06:47;12.43;;;6.75;;
31347;SDS011;21711;49.708;18.568;2023-07-24T12:09:14;9.27;;;6.82;;
31347;SDS011;21711;49.708;18.568;2023-07-24T12:11:42;11.23;;;7.32;;
31347;SDS011;21711;49.708;18.568;2023-07-24T12:14:13;10.43;;;7.03;;
31347;SDS011;21711;49.708;18.568;2023-07-24T12:16:42;10.07;;;6.95;;
31347;SDS011;21711;49.708;18.568;2023-07-24T12:19:10;10.35;;;7.32;;
31347;SDS011;21711;49.708;18.568;2023-07-24T12:21:37;11.25;;;7.03;;
31347;SDS011;21711;49.708;18.568;2023-07-24T12:24:05;11.45;;;7.68;;
31347;SDS011;21711;49.708;18.568;2023-07-24T12:26:32;15.05;;;7.80;;
31347;SDS011;21711;49.708;18.568;2023-07-24T12:29:00;8.95;;;6.75;;
31347;SDS011;21711;49.708;18.568;2023-07-24T12:31:27;9.10;;;6.90;;
31347;SDS011;21711;49.708;18.568;2023-07-24T12:33:56;11.23;;;7.50;;
31347;SDS011;21711;49.708;18.568;2023-07-24T12:36:23;15.20;;;7.18;;
31347;SDS011;21711;49.708;18.568;2023-07-24T12:38:50;12.52;;;7.53;;
31347;SDS011;21711;49.708;18.568;2023-07-24T12:41:18;13.07;;;7.80;;
31347;SDS011;21711;49.708;18.568;2023-07-24T12:43:45;12.52;;;7.55;;
31347;SDS011;21711;49.708;18.568;2023-07-24T12:46:13;12.52;;;7.78;;
31347;SDS011;21711;49.708;18.568;2023-07-24T12:48:40;10.77;;;6.55;;
31347;SDS011;21711;49.708;18.568;2023-07-24T12:51:07;11.25;;;7.75;;
31347;SDS011;21711;49.708;18.568;2023-07-24T12:53:34;10.02;;;6.78;;
31347;SDS011;21711;49.708;18.568;2023-07-24T12:56:22;10.30;;;7.45;;
31347;SDS011;21711;49.708;18.568;2023-07-24T12:58:49;9.95;;;7.80;;
31347;SDS011;21711;49.708;18.568;2023-07-24T13:01:17;14.32;;;8.05;;
31347;SDS011;21711;49.708;18.568;2023-07-24T13:03:44;13.50;;;7.88;;
31347;SDS011;21711;49.708;18.568;2023-07-24T13:06:11;10.20;;;6.88;;
31347;SDS011;21711;49.708;18.568;2023-07-24T13:08:39;9.27;;;7.25;;
31347;SDS011;21711;49.708;18.568;2023-07-24T13:11:06;12.07;;;8.38;;
31347;SDS011;21711;49.708;18.568;2023-07-24T13:13:33;11.52;;;7.25;;
31347;SDS011;21711;49.708;18.568;2023-07-24T13:16:02;10.18;;;7.72;;
31347;SDS011;21711;49.708;18.568;2023-07-24T13:18:30;13.05;;;7.65;;
31347;SDS011;21711;49.708;18.568;2023-07-24T13:20:57;10.90;;;7.00;;
31347;SDS011;21711;49.708;18.568;2023-07-24T13:23:25;9.43;;;6.55;;
31347;SDS011;21711;49.708;18.568;2023-07-24T13:25:52;11.15;;;7.63;;
31347;SDS011;21711;49.708;18.568;2023-07-24T13:28:20;11.35;;;8.25;;
31347;SDS011;21711;49.708;18.568;2023-07-24T13:30:47;10.48;;;7.30;;
31347;SDS011;21711;49.708;18.568;2023-07-24T13:33:14;14.05;;;7.65;;
31347;SDS011;21711;49.708;18.568;2023-07-24T13:35:42;10.40;;;7.47;;
31347;SDS011;21711;49.708;18.568;2023-07-24T13:38:09;12.30;;;7.07;;
31347;SDS011;21711;49.708;18.568;2023-07-24T13:40:37;13.85;;;7.45;;
31347;SDS011;21711;49.708;18.568;2023-07-24T13:43:05;9.48;;;7.40;;
31347;SDS011;21711;49.708;18.568;2023-07-24T13:45:32;16.60;;;8.48;;
31347;SDS011;21711;49.708;18.568;2023-07-24T13:48:00;12.23;;;6.30;;
31347;SDS011;21711;49.708;18.568;2023-07-24T13:50:28;12.52;;;7.25;;
31347;SDS011;21711;49.708;18.568;2023-07-24T13:52:56;12.05;;;7.50;;
31347;SDS011;21711;49.708;18.568;2023-07-24T13:55:23;9.13;;;6.55;;
31347;SDS011;21711;49.708;18.568;2023-07-24T13:57:50;13.50;;;6.82;;
31347;SDS011;21711;49.708;18.568;2023-07-24T14:00:18;10.38;;;7.10;;
31347;SDS011;21711;49.708;18.568;2023-07-24T14:02:46;12.10;;;7.68;;
31347;SDS011;21711;49.708;18.568;2023-07-24T14:05:13;9.38;;;6.57;;
31347;SDS011;21711;49.708;18.568;2023-07-24T14:07:42;13.77;;;7.40;;
31347;SDS011;21711;49.708;18.568;2023-07-24T14:10:10;10.73;;;7.25;;
31347;SDS011;21711;49.708;18.568;2023-07-24T14:12:38;11.80;;;7.57;;
31347;SDS011;21711;49.708;18.568;2023-07-24T14:15:05;13.45;;;7.57;;
31347;SDS011;21711;49.708;18.568;2023-07-24T14:17:33;13.70;;;7.57;;
31347;SDS011;21711;49.708;18.568;2023-07-24T14:20:04;11.00;;;7.95;;
31347;SDS011;21711;49.708;18.568;2023-07-24T14:22:32;13.20;;;7.57;;
31347;SDS011;21711;49.708;18.568;2023-07-24T14:25:00;11.05;;;7.65;;
31347;SDS011;21711;49.708;18.568;2023-07-24T14:27:27;10.32;;;7.70;;
31347;SDS011;21711;49.708;18.568;2023-07-24T14:29:54;14.45;;;7.85;;
31347;SDS011;21711;49.708;18.568;2023-07-24T14:32:22;12.75;;;7.88;;
31347;SDS011;21711;49.708;18.568;2023-07-24T14:34:50;10.20;;;7.30;;
31347;SDS011;21711;49.708;18.568;2023-07-24T14:37:20;12.30;;;7.70;;
31347;SDS011;21711;49.708;18.568;2023-07-24T14:39:47;12.55;;;7.40;;
31347;SDS011;21711;49.708;18.568;2023-07-24T14:42:16;10.43;;;7.28;;
31347;SDS011;21711;49.708;18.568;2023-07-24T14:44:43;14.43;;;7.72;;
31347;SDS011;21711;49.708;18.568;2023-07-24T14:47:11;12.50;;;7.07;;
31347;SDS011;21711;49.708;18.568;2023-07-24T14:49:39;9.85;;;7.07;;
31347;SDS011;21711;49.708;18.568;2023-07-24T14:52:07;14.93;;;7.45;;